createdAt,value
2023-04-18T00:01:23.998Z,4.39
2023-04-18T00:03:51.026Z,4.41
2023-04-18T00:06:17.904Z,4.31
2023-04-18T00:08:44.612Z,4.29
2023-04-18T00:11:11.244Z,4.31
2023-04-18T00:13:39.427Z,4.35
2023-04-18T00:16:07.862Z,4.35
2023-04-18T00:18:36.838Z,4.31
2023-04-18T00:21:04.405Z,4.26
2023-04-18T00:23:31.201Z,4.26
2023-04-18T00:25:57.826Z,4.25
2023-04-18T00:28:24.564Z,4.22
2023-04-18T00:30:51.264Z,4.28
2023-04-18T00:33:17.974Z,4.29
2023-04-18T00:35:44.604Z,4.31
2023-04-18T00:38:11.251Z,4.26
2023-04-18T00:40:38.846Z,4.24
2023-04-18T00:43:07.715Z,4.19
2023-04-18T00:45:34.449Z,4.15
2023-04-18T00:48:01.113Z,4.14
2023-04-18T00:50:27.753Z,4.15
2023-04-18T00:52:54.370Z,4.19
2023-04-18T00:55:20.982Z,4.19
2023-04-18T00:57:47.642Z,4.19
2023-04-18T01:00:15.207Z,4.18
2023-04-18T01:02:42.079Z,4.18
2023-04-18T01:05:09.002Z,4.17
2023-04-18T01:07:37.369Z,4.12
2023-04-18T01:10:04.413Z,4.09
2023-04-18T01:12:31.396Z,4.05
2023-04-18T01:14:58.905Z,4.02
2023-04-18T01:17:28.380Z,4.04
2023-04-18T01:19:55.062Z,4.08
2023-04-18T01:22:21.705Z,4.07
2023-04-18T01:24:48.359Z,4.04
2023-04-18T01:27:14.977Z,4.08
2023-04-18T01:29:41.632Z,4.08
2023-04-18T01:32:08.296Z,4.15
2023-04-18T01:34:34.972Z,4.19
2023-04-18T01:37:01.655Z,4.24
2023-04-18T01:39:28.644Z,4.25
2023-04-18T01:41:55.305Z,4.31
2023-04-18T01:44:22.045Z,4.35
2023-04-18T01:46:48.731Z,4.45
2023-04-18T01:49:16.086Z,4.49
2023-04-18T01:51:43.935Z,4.52
2023-04-18T01:54:10.626Z,4.59
2023-04-18T01:56:37.278Z,4.62
2023-04-18T01:59:03.952Z,4.60
2023-04-18T02:01:30.745Z,4.59
2023-04-18T02:03:57.631Z,4.59
2023-04-18T02:06:24.500Z,4.55
2023-04-18T02:08:51.158Z,4.56
2023-04-18T02:11:17.762Z,4.53
2023-04-18T02:13:44.418Z,4.56
2023-04-18T02:16:12.929Z,4.59
2023-04-18T02:18:40.252Z,4.55
2023-04-18T02:21:07.274Z,4.57
2023-04-18T02:23:33.886Z,4.63
2023-04-18T02:26:00.515Z,4.66
2023-04-18T02:28:27.164Z,4.67
2023-04-18T02:30:53.785Z,4.63
2023-04-18T02:33:20.470Z,4.60
2023-04-18T02:35:47.270Z,4.62
2023-04-18T02:38:13.943Z,4.62
2023-04-18T02:40:40.576Z,4.59
2023-04-18T02:43:07.280Z,4.53
2023-04-18T02:45:33.951Z,4.55
2023-04-18T02:48:01.271Z,4.46
2023-04-18T02:50:29.167Z,4.38
2023-04-18T02:52:56.194Z,4.41
2023-04-18T02:55:22.842Z,4.42
2023-04-18T02:57:49.654Z,4.44
2023-04-18T03:00:16.387Z,4.39
2023-04-18T03:02:43.174Z,4.36
2023-04-18T03:05:10.073Z,4.32
2023-04-18T03:07:36.803Z,4.26
2023-04-18T03:10:03.788Z,4.19
2023-04-18T03:12:30.671Z,4.17
2023-04-18T03:14:57.281Z,4.11
2023-04-18T03:17:23.941Z,4.08
2023-04-18T03:19:50.696Z,4.01
2023-04-18T03:22:17.750Z,3.88
2023-04-18T03:24:44.409Z,3.90
2023-04-18T03:27:11.630Z,3.91
2023-04-18T03:29:38.619Z,3.88
2023-04-18T03:32:05.361Z,3.87
2023-04-18T03:34:31.996Z,3.88
2023-04-18T03:36:58.702Z,3.88
2023-04-18T03:39:25.319Z,3.90
2023-04-18T03:41:52.623Z,3.83
2023-04-18T03:44:19.261Z,3.83
2023-04-18T03:46:45.937Z,3.84
2023-04-18T03:49:12.686Z,3.84
2023-04-18T03:51:47.987Z,3.81
2023-04-18T03:54:15.821Z,3.86
2023-04-18T03:56:42.745Z,3.90
2023-04-18T03:59:09.684Z,3.95
2023-04-18T04:01:36.438Z,3.98
2023-04-18T04:04:03.827Z,4.01
2023-04-18T04:06:32.181Z,4.09
2023-04-18T04:08:58.913Z,4.17
2023-04-18T04:11:25.996Z,4.19
2023-04-18T04:13:52.771Z,4.25
2023-04-18T04:16:19.493Z,4.25
2023-04-18T04:18:46.225Z,4.29
2023-04-18T04:21:12.948Z,4.38
2023-04-18T04:23:42.168Z,4.46
2023-04-18T04:26:09.255Z,4.57
2023-04-18T04:28:36.165Z,4.67
2023-04-18T04:31:03.520Z,4.65
2023-04-18T04:33:33.302Z,4.63
2023-04-18T04:36:01.269Z,4.69
2023-04-18T04:38:31.137Z,4.72
2023-04-18T04:40:58.347Z,4.79
2023-04-18T04:43:25.570Z,4.88
2023-04-18T04:45:53.268Z,4.93
2023-04-18T04:48:22.113Z,4.95
2023-04-18T04:50:52.928Z,5.01
2023-04-18T04:53:19.681Z,5.07
2023-04-18T04:55:46.360Z,5.13
2023-04-18T04:58:13.060Z,5.21
2023-04-18T05:00:39.704Z,5.25
2023-04-18T05:03:07.202Z,5.25
2023-04-18T05:05:33.969Z,5.31
2023-04-18T05:08:00.623Z,5.30
2023-04-18T05:10:27.259Z,5.30
2023-04-18T05:12:53.942Z,5.35
2023-04-18T05:15:20.780Z,5.43
2023-04-18T05:17:47.479Z,5.59
2023-04-18T05:20:14.262Z,5.66
2023-04-18T05:22:40.977Z,5.81
2023-04-18T05:25:08.335Z,5.97
2023-04-18T05:27:35.038Z,6.01
2023-04-18T05:30:01.696Z,6.18
2023-04-18T05:32:28.369Z,6.31
2023-04-18T05:34:55.103Z,6.37
2023-04-18T05:37:22.567Z,6.32
2023-04-18T05:39:49.204Z,6.46
2023-04-18T05:42:15.878Z,6.61
2023-04-18T05:44:42.542Z,6.72
2023-04-18T05:47:09.211Z,6.85
2023-04-18T05:49:36.034Z,6.99
2023-04-18T05:52:02.683Z,7.13
2023-04-18T05:54:29.329Z,7.14
2023-04-18T05:57:04.386Z,7.13
2023-04-18T05:59:31.292Z,7.21
2023-04-18T06:01:58.038Z,7.30
2023-04-18T06:04:24.980Z,7.34
2023-04-18T06:06:51.873Z,7.35
2023-04-18T06:09:18.486Z,7.47
2023-04-18T06:11:45.228Z,7.58
2023-04-18T06:14:12.223Z,7.65
2023-04-18T06:16:39.201Z,7.66
2023-04-18T06:19:05.929Z,7.65
2023-04-18T06:21:32.680Z,7.58
2023-04-18T06:24:01.323Z,7.58
2023-04-18T06:26:28.042Z,7.65
2023-04-18T06:28:54.694Z,7.82
2023-04-18T06:31:21.477Z,7.89
2023-04-18T06:33:48.210Z,7.90
2023-04-18T06:36:14.896Z,7.96
2023-04-18T06:38:41.490Z,8.14
2023-04-18T06:41:08.172Z,8.37
2023-04-18T06:43:36.232Z,8.50
2023-04-18T06:46:04.674Z,8.65
2023-04-18T06:48:31.463Z,8.73
2023-04-18T06:50:58.112Z,8.73
2023-04-18T06:53:24.795Z,8.88
2023-04-18T06:55:51.663Z,8.93
2023-04-18T06:58:18.319Z,9.05
2023-04-18T07:00:47.666Z,9.13
2023-04-18T07:03:14.593Z,9.19
2023-04-18T07:05:41.329Z,9.17
2023-04-18T07:08:08.029Z,9.22
2023-04-18T07:10:34.704Z,9.23
2023-04-18T07:13:01.421Z,9.29
2023-04-18T07:15:28.183Z,9.29
2023-04-18T07:17:54.934Z,9.41
2023-04-18T07:20:21.794Z,9.55
2023-04-18T07:22:48.775Z,9.62
2023-04-18T07:25:15.547Z,9.78
2023-04-18T07:27:42.448Z,9.82
2023-04-18T07:30:09.582Z,9.85
2023-04-18T07:32:36.298Z,9.84
2023-04-18T07:35:03.463Z,9.78
2023-04-18T07:37:30.141Z,9.88
2023-04-18T07:39:56.805Z,9.98
2023-04-18T07:42:23.464Z,10.08
2023-04-18T07:44:50.150Z,10.06
2023-04-18T07:47:17.231Z,10.06
2023-04-18T07:49:43.874Z,10.02
2023-04-18T07:52:10.786Z,9.96
2023-04-18T07:54:37.470Z,9.99
2023-04-18T07:57:04.156Z,10.05
2023-04-18T07:59:32.265Z,10.08
2023-04-18T08:01:59.006Z,10.16
2023-04-18T08:04:28.207Z,10.17
2023-04-18T08:06:56.524Z,10.29
2023-04-18T08:09:23.242Z,10.43
2023-04-18T08:11:49.947Z,10.50
2023-04-18T08:14:16.625Z,10.60
2023-04-18T08:16:43.412Z,10.59
2023-04-18T08:19:10.146Z,10.65
2023-04-18T08:21:36.751Z,10.70
2023-04-18T08:24:03.417Z,10.74
2023-04-18T08:26:30.085Z,10.77
2023-04-18T08:28:56.807Z,10.84
2023-04-18T08:31:23.506Z,10.82
2023-04-18T08:33:50.281Z,10.72
2023-04-18T08:36:17.050Z,10.59
2023-04-18T08:38:43.703Z,10.44
2023-04-18T08:41:10.327Z,10.33
2023-04-18T08:43:37.767Z,10.22
2023-04-18T08:46:04.498Z,10.05
2023-04-18T08:48:31.502Z,9.92
2023-04-18T08:50:58.742Z,9.79
2023-04-18T08:53:26.761Z,9.65
2023-04-18T08:55:54.772Z,9.57
2023-04-18T08:58:25.647Z,9.55
2023-04-18T09:00:53.230Z,9.52
2023-04-18T09:03:37.626Z,9.54
2023-04-18T09:06:16.414Z,9.54
2023-04-18T09:08:46.456Z,9.52
2023-04-18T09:11:29.975Z,9.52
2023-04-18T09:13:58.899Z,9.44
2023-04-18T09:16:27.614Z,9.37
2023-04-18T09:19:14.448Z,9.36
2023-04-18T09:21:41.915Z,9.30
2023-04-18T09:24:24.906Z,9.26
2023-04-18T09:26:53.836Z,9.20
2023-04-18T09:29:23.853Z,9.20
2023-04-18T09:32:01.153Z,9.15
2023-04-18T09:34:28.724Z,9.10
2023-04-18T09:37:11.691Z,9.09
2023-04-18T09:39:39.537Z,9.05
2023-04-18T09:42:06.338Z,9.00
2023-04-18T09:44:33.074Z,9.00
2023-04-18T09:47:00.507Z,8.90
2023-04-18T09:49:27.385Z,8.83
2023-04-18T09:51:54.936Z,8.71
2023-04-18T09:54:23.746Z,8.65
2023-04-18T09:56:51.764Z,8.67
2023-04-18T09:59:25.757Z,8.69
2023-04-18T10:01:52.421Z,8.67
2023-04-18T10:04:19.205Z,8.67
2023-04-18T10:06:45.989Z,8.61
2023-04-18T10:09:12.836Z,8.61
2023-04-18T10:11:39.631Z,8.58
2023-04-18T10:14:10.454Z,8.64
2023-04-18T10:16:37.503Z,8.72
2023-04-18T10:19:24.400Z,8.76
2023-04-18T10:21:53.953Z,8.79
2023-04-18T10:24:47.191Z,8.72
2023-04-18T10:27:14.015Z,8.67
2023-04-18T10:29:50.702Z,8.65
2023-04-18T10:32:18.812Z,8.68
2023-04-18T10:34:49.368Z,8.76
2023-04-18T10:37:16.062Z,8.83
2023-04-18T10:40:00.474Z,8.83
2023-04-18T10:42:45.700Z,8.88
2023-04-18T10:45:22.135Z,8.90
2023-04-18T10:47:49.084Z,8.93
2023-04-18T10:50:16.112Z,8.88
2023-04-18T10:52:43.488Z,8.89
2023-04-18T10:55:20.876Z,8.88
2023-04-18T10:57:48.466Z,8.83
2023-04-18T11:00:18.974Z,8.81
2023-04-18T11:03:00.403Z,8.79
2023-04-18T11:05:28.264Z,8.72
2023-04-18T11:07:55.064Z,8.64
2023-04-18T11:10:23.795Z,8.55
2023-04-18T11:12:50.469Z,8.52
2023-04-18T11:15:22.262Z,8.42
2023-04-18T11:18:02.652Z,8.30
2023-04-18T11:20:30.284Z,8.31
2023-04-18T11:22:57.744Z,8.41
2023-04-18T11:25:32.101Z,8.40
2023-04-18T11:27:59.817Z,8.38
2023-04-18T11:30:26.586Z,8.29
2023-04-18T11:32:54.296Z,8.21
2023-04-18T11:35:21.032Z,8.19
2023-04-18T11:37:50.020Z,8.21
2023-04-18T11:40:16.745Z,8.24
2023-04-18T11:42:43.451Z,8.30
2023-04-18T11:45:12.334Z,8.41
2023-04-18T11:47:39.201Z,8.45
2023-04-18T11:50:06.943Z,8.58
2023-04-18T11:52:34.247Z,8.67
2023-04-18T11:55:13.095Z,8.76
2023-04-18T11:57:40.100Z,8.78
2023-04-18T12:00:08.725Z,8.82
2023-04-18T12:02:43.383Z,8.85
2023-04-18T12:05:15.052Z,8.82
2023-04-18T12:07:42.753Z,8.75
2023-04-18T12:10:26.289Z,8.78
2023-04-18T12:12:54.592Z,8.78
2023-04-18T12:15:24.055Z,8.83
2023-04-18T12:17:53.530Z,8.86
2023-04-18T12:20:20.320Z,8.83
2023-04-18T12:22:49.663Z,8.79
2023-04-18T12:25:24.323Z,8.83
2023-04-18T12:28:04.180Z,8.83
2023-04-18T12:30:32.203Z,8.76
2023-04-18T12:33:00.224Z,8.71
2023-04-18T12:35:27.358Z,8.73
2023-04-18T12:37:55.769Z,8.76
2023-04-18T12:40:23.099Z,8.67
2023-04-18T12:42:50.622Z,8.68
2023-04-18T12:45:17.711Z,8.73
2023-04-18T12:47:45.846Z,8.79
2023-04-18T12:50:16.141Z,8.82
2023-04-18T12:52:42.846Z,8.83
2023-04-18T12:55:09.756Z,8.90
2023-04-18T12:57:36.572Z,8.85
2023-04-18T13:00:06.605Z,8.69
2023-04-18T13:02:35.388Z,8.60
2023-04-18T13:05:02.381Z,8.61
2023-04-18T13:07:29.210Z,8.44
2023-04-18T13:09:55.893Z,8.34
2023-04-18T13:12:22.580Z,8.16
2023-04-18T13:14:49.287Z,8.12
2023-04-18T13:17:15.961Z,8.09
2023-04-18T13:19:42.581Z,8.10
2023-04-18T13:22:09.348Z,8.17
2023-04-18T13:24:37.085Z,8.24
2023-04-18T13:27:10.272Z,8.30
2023-04-18T13:29:38.471Z,8.33
2023-04-18T13:32:06.191Z,8.33
2023-04-18T13:34:34.298Z,8.33
2023-04-18T13:37:01.398Z,8.19
2023-04-18T13:39:28.041Z,8.23
2023-04-18T13:41:55.077Z,8.29
2023-04-18T13:44:21.782Z,8.33
2023-04-18T13:46:48.968Z,8.41
2023-04-18T13:49:15.933Z,8.41
2023-04-18T13:51:42.740Z,8.45
2023-04-18T13:54:09.405Z,8.48
2023-04-18T13:56:36.137Z,8.51
2023-04-18T13:59:02.859Z,8.48
2023-04-18T14:01:29.596Z,8.47
2023-04-18T14:03:56.431Z,8.44
2023-04-18T14:06:23.449Z,8.42
2023-04-18T14:08:51.193Z,8.42
2023-04-18T14:11:17.890Z,8.44
2023-04-18T14:13:44.504Z,8.34
2023-04-18T14:16:11.189Z,8.36
2023-04-18T14:18:38.559Z,8.27
2023-04-18T14:21:05.273Z,8.26
2023-04-18T14:23:32.027Z,8.30
2023-04-18T14:25:58.630Z,8.31
2023-04-18T14:28:25.491Z,8.38
2023-04-18T14:30:52.220Z,8.40
2023-04-18T14:33:18.899Z,8.37
2023-04-18T14:35:45.989Z,8.36
2023-04-18T14:38:12.760Z,8.33
2023-04-18T14:40:39.537Z,8.23
2023-04-18T14:43:06.200Z,8.16
2023-04-18T14:45:34.019Z,8.10
2023-04-18T14:48:01.288Z,8.03
2023-04-18T14:50:28.022Z,7.92
2023-04-18T14:52:54.625Z,7.86
2023-04-18T14:55:21.309Z,7.85
2023-04-18T14:57:47.973Z,7.85
2023-04-18T15:00:15.608Z,7.86
2023-04-18T15:02:42.532Z,7.87
2023-04-18T15:05:10.268Z,7.92
2023-04-18T15:07:38.006Z,7.99
2023-04-18T15:10:05.352Z,7.96
2023-04-18T15:12:32.507Z,7.99
2023-04-18T15:15:02.179Z,8.02
2023-04-18T15:17:29.364Z,8.09
2023-04-18T15:19:56.062Z,8.12
2023-04-18T15:22:22.915Z,8.21
2023-04-18T15:24:49.704Z,8.19
2023-04-18T15:27:16.380Z,8.20
2023-04-18T15:29:43.082Z,8.21
2023-04-18T15:32:10.298Z,8.19
2023-04-18T15:34:37.115Z,8.17
2023-04-18T15:37:04.598Z,8.12
2023-04-18T15:39:31.464Z,8.16
2023-04-18T15:41:58.075Z,8.17
2023-04-18T15:44:24.766Z,8.19
2023-04-18T15:46:51.845Z,8.16
2023-04-18T15:49:18.520Z,8.16
2023-04-18T15:51:45.140Z,8.13
2023-04-18T15:54:12.045Z,8.09
2023-04-18T15:56:39.120Z,8.13
2023-04-18T15:59:06.215Z,8.16
2023-04-18T16:01:33.410Z,8.19
2023-04-18T16:04:00.390Z,8.17
2023-04-18T16:06:27.456Z,8.10
2023-04-18T16:08:54.238Z,8.10
2023-04-18T16:11:21.886Z,8.03
2023-04-18T16:13:48.593Z,8.03
2023-04-18T16:16:15.358Z,8.03
2023-04-18T16:18:42.045Z,8.06
2023-04-18T16:21:08.764Z,8.03
2023-04-18T16:23:35.381Z,7.96
2023-04-18T16:26:02.028Z,7.94
2023-04-18T16:28:30.031Z,7.97
2023-04-18T16:30:56.773Z,8.00
2023-04-18T16:33:26.097Z,8.00
2023-04-18T16:35:53.130Z,8.00
2023-04-18T16:38:23.517Z,7.99
2023-04-18T16:40:50.216Z,7.93
2023-04-18T16:43:16.868Z,7.85
2023-04-18T16:45:43.616Z,7.86
2023-04-18T16:48:10.357Z,7.85
2023-04-18T16:50:37.121Z,7.86
2023-04-18T16:53:03.793Z,7.81
2023-04-18T16:55:30.517Z,7.81
2023-04-18T16:57:57.182Z,7.81
2023-04-18T17:00:23.914Z,7.78
2023-04-18T17:02:50.958Z,7.75
2023-04-18T17:05:18.752Z,7.75
2023-04-18T17:07:46.084Z,7.79
2023-04-18T17:10:12.814Z,7.75
2023-04-18T17:12:39.494Z,7.65
2023-04-18T17:15:07.060Z,7.69
2023-04-18T17:17:34.802Z,7.72
2023-04-18T17:20:01.560Z,7.72
2023-04-18T17:22:29.287Z,7.71
2023-04-18T17:24:56.030Z,7.66
2023-04-18T17:27:22.798Z,7.68
2023-04-18T17:29:49.922Z,7.62
2023-04-18T17:32:16.588Z,7.64
2023-04-18T17:34:43.307Z,7.64
2023-04-18T17:37:11.145Z,7.62
2023-04-18T17:39:37.809Z,7.62
2023-04-18T17:42:04.445Z,7.62
2023-04-18T17:44:31.128Z,7.52
2023-04-18T17:46:57.774Z,7.47
2023-04-18T17:49:24.499Z,7.47
2023-04-18T17:51:51.209Z,7.45
2023-04-18T17:54:17.832Z,7.44
2023-04-18T17:56:45.514Z,7.45
2023-04-18T17:59:12.594Z,7.44
2023-04-18T18:01:39.707Z,7.44
2023-04-18T18:04:06.474Z,7.41
2023-04-18T18:06:33.178Z,7.38
2023-04-18T18:08:59.829Z,7.44
2023-04-18T18:11:27.780Z,7.45
2023-04-18T18:13:55.672Z,7.40
2023-04-18T18:16:23.914Z,7.37
2023-04-18T18:18:51.082Z,7.34
2023-04-18T18:21:18.112Z,7.34
2023-04-18T18:23:44.720Z,7.34
2023-04-18T18:26:11.925Z,7.35
2023-04-18T18:28:38.703Z,7.37
2023-04-18T18:31:05.523Z,7.44
2023-04-18T18:33:32.150Z,7.44
2023-04-18T18:35:59.579Z,7.44
2023-04-18T18:38:26.364Z,7.38
2023-04-18T18:40:53.133Z,7.35
2023-04-18T18:43:19.886Z,7.31
2023-04-18T18:45:46.623Z,7.23
2023-04-18T18:48:14.764Z,7.25
2023-04-18T18:50:41.982Z,7.25
2023-04-18T18:53:08.624Z,7.23
2023-04-18T18:55:35.303Z,7.27
2023-04-18T18:58:02.589Z,7.28
2023-04-18T19:00:29.308Z,7.35
2023-04-18T19:02:56.081Z,7.40
2023-04-18T19:05:22.858Z,7.37
2023-04-18T19:07:51.427Z,7.44
2023-04-18T19:10:18.141Z,7.47
2023-04-18T19:12:44.843Z,7.50
2023-04-18T19:15:11.921Z,7.48
2023-04-18T19:17:38.656Z,7.51
2023-04-18T19:20:05.991Z,7.51
2023-04-18T19:22:32.680Z,7.51
2023-04-18T19:25:00.696Z,7.48
2023-04-18T19:27:27.356Z,7.52
2023-04-18T19:29:54.079Z,7.54
2023-04-18T19:32:20.998Z,7.48
2023-04-18T19:34:47.712Z,7.50
2023-04-18T19:37:14.389Z,7.52
2023-04-18T19:39:41.025Z,7.50
2023-04-18T19:42:08.534Z,7.54
2023-04-18T19:44:35.298Z,7.51
2023-04-18T19:47:01.938Z,7.51
2023-04-18T19:49:28.645Z,7.55
2023-04-18T19:51:55.321Z,7.55
2023-04-18T19:54:22.277Z,7.58
2023-04-18T19:56:48.970Z,7.58
2023-04-18T19:59:16.011Z,7.51
2023-04-18T20:01:42.993Z,7.45
2023-04-18T20:04:09.930Z,7.43
2023-04-18T20:06:36.753Z,7.41
2023-04-18T20:09:04.155Z,7.38
2023-04-18T20:11:30.777Z,7.40
2023-04-18T20:13:57.420Z,7.38
2023-04-18T20:16:24.070Z,7.34
2023-04-18T20:18:52.295Z,7.28
2023-04-18T20:21:20.170Z,7.24
2023-04-18T20:23:46.891Z,7.21
2023-04-18T20:26:13.596Z,7.17
2023-04-18T20:28:40.267Z,7.24
2023-04-18T20:31:07.233Z,7.17
2023-04-18T20:33:34.383Z,7.13
2023-04-18T20:36:01.009Z,7.20
2023-04-18T20:38:29.716Z,7.25
2023-04-18T20:40:58.836Z,7.23
2023-04-18T20:43:25.879Z,7.23
2023-04-18T20:45:53.846Z,7.28
2023-04-18T20:48:21.003Z,7.37
2023-04-18T20:50:51.436Z,7.35
2023-04-18T20:53:21.792Z,7.35
2023-04-18T20:55:48.694Z,7.31
2023-04-18T20:58:15.865Z,7.30
2023-04-18T21:00:43.715Z,7.30
2023-04-18T21:03:13.001Z,7.27
2023-04-18T21:05:39.777Z,7.21
2023-04-18T21:08:06.459Z,7.18
2023-04-18T21:10:33.207Z,7.16
2023-04-18T21:13:00.080Z,7.14
2023-04-18T21:15:26.810Z,7.10
2023-04-18T21:17:53.505Z,7.10
2023-04-18T21:20:20.308Z,7.03
2023-04-18T21:22:46.983Z,7.00
2023-04-18T21:25:14.105Z,6.97
2023-04-18T21:27:40.849Z,6.93
2023-04-18T21:30:08.114Z,6.87
2023-04-18T21:32:34.851Z,6.83
2023-04-18T21:35:01.750Z,6.77
2023-04-18T21:37:29.009Z,6.69
2023-04-18T21:39:55.760Z,6.66
2023-04-18T21:42:22.403Z,6.58
2023-04-18T21:44:49.107Z,6.58
2023-04-18T21:47:15.864Z,6.56
2023-04-18T21:49:42.805Z,6.58
2023-04-18T21:52:09.600Z,6.53
2023-04-18T21:54:36.256Z,6.50
2023-04-18T21:57:02.945Z,6.52
2023-04-18T21:59:29.973Z,6.49
2023-04-18T22:01:56.688Z,6.42
2023-04-18T22:04:26.190Z,6.44
2023-04-18T22:06:56.978Z,6.44
2023-04-18T22:09:23.587Z,6.41
2023-04-18T22:11:51.855Z,6.41
2023-04-18T22:14:20.091Z,6.38
2023-04-18T22:16:46.785Z,6.41
2023-04-18T22:19:14.150Z,6.46
2023-04-18T22:21:40.896Z,6.48
2023-04-18T22:24:08.211Z,6.42
2023-04-18T22:26:34.851Z,6.45
2023-04-18T22:29:01.573Z,6.44
2023-04-18T22:31:28.333Z,6.48
2023-04-18T22:33:55.043Z,6.53
2023-04-18T22:36:21.749Z,6.56
2023-04-18T22:38:48.345Z,6.56
2023-04-18T22:41:14.968Z,6.59
2023-04-18T22:43:41.658Z,6.62
2023-04-18T22:46:08.356Z,6.66
2023-04-18T22:48:35.310Z,6.68
2023-04-18T22:51:02.000Z,6.62
2023-04-18T22:53:28.681Z,6.65
2023-04-18T22:55:55.380Z,6.66
2023-04-18T22:58:22.055Z,6.69
2023-04-18T23:00:48.715Z,6.69
2023-04-18T23:03:15.433Z,6.76
2023-04-18T23:05:42.221Z,6.75
2023-04-18T23:08:08.901Z,6.73
2023-04-18T23:10:35.670Z,6.73
2023-04-18T23:13:02.403Z,6.73
2023-04-18T23:15:29.059Z,6.68
2023-04-18T23:17:55.738Z,6.58
2023-04-18T23:20:23.989Z,6.50
2023-04-18T23:22:51.800Z,6.48
2023-04-18T23:25:19.574Z,6.46
2023-04-18T23:27:46.941Z,6.41
2023-04-18T23:30:13.565Z,6.45
2023-04-18T23:32:40.293Z,6.49
2023-04-18T23:35:07.167Z,6.52
2023-04-18T23:37:33.822Z,6.59
2023-04-18T23:40:00.562Z,6.62
2023-04-18T23:42:27.520Z,6.69
2023-04-18T23:44:54.668Z,6.72
2023-04-18T23:47:21.996Z,6.73
2023-04-18T23:49:48.842Z,6.69
2023-04-18T23:52:15.566Z,6.71
2023-04-18T23:54:42.254Z,6.66
2023-04-18T23:57:08.885Z,6.61
2023-04-18T23:59:36.539Z,6.64
